createdAt,value
2017-07-20T11:49:40.278Z,10.37
2017-07-20T11:52:07.876Z,10.90
2017-07-20T11:54:35.776Z,14.50
2017-07-20T11:57:03.429Z,9.00
2017-07-20T11:59:31.517Z,6.40
2017-07-20T12:01:59.410Z,19.80
2017-07-20T12:04:27.500Z,9.63
2017-07-20T12:06:55.314Z,9.60
2017-07-20T15:23:04.578Z,3.73
2017-07-20T15:25:32.128Z,6.00
2017-07-20T15:27:59.653Z,4.27
2017-07-20T15:30:27.200Z,3.57
2017-07-20T15:32:54.685Z,4.80
2017-07-20T15:37:51.581Z,6.47
2017-07-20T15:40:19.249Z,7.20
2017-07-20T15:42:46.958Z,7.20
2017-07-20T15:45:14.469Z,5.27
2017-07-20T15:47:42.013Z,5.63
2017-07-20T15:50:09.543Z,4.03
2017-07-20T15:52:37.052Z,4.00
2017-07-20T15:55:04.544Z,3.73
2017-07-20T15:57:32.056Z,4.07
2017-07-20T15:59:59.541Z,5.80
2017-07-20T16:02:27.084Z,5.73
2017-07-20T16:04:54.596Z,4.00
2017-07-20T16:07:22.080Z,3.80
2017-07-20T16:09:49.601Z,3.90
2017-07-20T16:12:17.093Z,3.43
2017-07-20T16:14:44.620Z,3.10
2017-07-20T16:17:15.696Z,4.03
2017-07-20T16:19:43.204Z,3.43
2017-07-20T16:22:10.697Z,3.70
2017-07-20T16:24:38.220Z,3.23
2017-07-20T16:27:05.732Z,3.80
2017-07-20T16:29:33.245Z,4.07
2017-07-20T16:32:00.732Z,3.47
2017-07-20T16:34:28.260Z,3.50
2017-07-20T16:36:55.756Z,4.60
2017-07-20T16:39:23.257Z,3.30
2017-07-20T16:41:50.768Z,7.03
2017-07-20T16:44:18.296Z,3.80
2017-07-20T16:49:38.360Z,3.50
2017-07-20T16:52:05.871Z,3.90
2017-07-20T16:54:33.357Z,3.80
2017-07-20T16:57:00.873Z,4.00
2017-07-20T16:59:28.429Z,3.67
2017-07-20T17:01:56.743Z,3.50
2017-07-20T17:04:24.233Z,4.10
2017-07-20T17:06:51.780Z,4.30
2017-07-20T17:09:19.353Z,3.77
2017-07-20T17:11:46.841Z,3.87
2017-07-20T17:14:14.404Z,3.30
2017-07-20T17:19:34.409Z,3.90
2017-07-20T17:22:01.902Z,3.77
2017-07-20T17:24:29.445Z,3.53
2017-07-20T17:26:56.940Z,3.20
2017-07-20T17:29:24.562Z,3.23
2017-07-20T17:31:52.049Z,3.00
2017-07-20T17:34:19.594Z,3.17
2017-07-20T17:36:47.088Z,4.07
2017-07-20T17:39:14.595Z,4.00
2017-07-20T17:41:42.080Z,4.13
2017-07-20T17:44:09.597Z,3.43
2017-07-20T17:49:29.418Z,3.40
2017-07-20T17:51:57.005Z,5.00
2017-07-20T17:54:24.532Z,3.43
2017-07-20T17:56:52.024Z,2.90
2017-07-20T17:59:20.439Z,3.40
2017-07-20T18:01:47.948Z,3.30
2017-07-20T18:04:15.440Z,3.40
2017-07-20T18:06:42.960Z,3.43
2017-07-20T18:09:10.457Z,3.30
2017-07-20T18:11:37.977Z,4.53
2017-07-20T18:14:05.470Z,3.80
2017-07-20T18:19:25.345Z,4.37
2017-07-20T18:21:52.877Z,3.70
2017-07-20T18:24:20.369Z,3.00
2017-07-20T18:26:47.904Z,3.47
2017-07-20T18:29:15.401Z,4.47
2017-07-20T18:31:42.916Z,3.27
2017-07-20T18:34:10.401Z,3.37
2017-07-20T18:36:37.900Z,3.20
2017-07-20T18:39:05.420Z,3.23
2017-07-20T18:41:32.912Z,3.20
2017-07-20T18:44:00.424Z,3.73
2017-07-20T18:49:20.317Z,3.07
2017-07-20T18:51:47.813Z,3.10
2017-07-20T18:54:15.335Z,3.30
2017-07-20T18:56:42.832Z,3.43
2017-07-20T18:59:10.359Z,3.30
2017-07-20T19:01:37.853Z,3.17
2017-07-20T19:04:05.372Z,3.10
2017-07-20T19:06:32.864Z,3.30
2017-07-20T19:09:00.417Z,3.00
2017-07-20T19:11:27.912Z,3.40
2017-07-20T19:13:55.405Z,3.07
2017-07-20T19:19:15.281Z,2.70
2017-07-20T19:21:42.767Z,3.07
2017-07-20T19:24:10.249Z,2.70
2017-07-20T19:26:37.772Z,5.57
2017-07-20T19:29:05.301Z,3.97
2017-07-20T19:31:32.833Z,3.40
2017-07-20T19:34:00.341Z,3.00
2017-07-20T19:36:27.998Z,3.10
2017-07-20T19:38:55.495Z,3.23
2017-07-20T19:41:23.020Z,3.07
2017-07-20T19:43:50.504Z,3.73
2017-07-20T19:49:11.027Z,2.77
2017-07-20T19:51:38.546Z,2.97
2017-07-20T19:54:06.036Z,3.93
2017-07-20T19:56:33.568Z,4.30
2017-07-20T19:59:01.145Z,2.90
2017-07-20T20:01:28.742Z,3.50
2017-07-20T20:03:56.270Z,3.30
2017-07-20T20:06:23.809Z,3.03
2017-07-20T20:08:51.349Z,2.97
2017-07-20T20:11:18.848Z,2.83
2017-07-20T20:13:46.413Z,2.23
2017-07-20T20:16:13.899Z,3.40
2017-07-20T20:18:41.460Z,2.83
2017-07-20T20:21:08.948Z,2.80
2017-07-20T20:23:36.566Z,3.20
2017-07-20T20:26:04.052Z,2.87
2017-07-20T20:28:31.537Z,3.03
2017-07-20T20:30:59.052Z,2.53
2017-07-20T20:33:26.569Z,3.07
2017-07-20T20:35:54.090Z,2.63
2017-07-20T20:38:21.580Z,2.23
2017-07-20T20:40:49.423Z,2.80
2017-07-20T20:43:16.913Z,3.00
2017-07-20T20:45:44.431Z,2.57
2017-07-20T20:48:11.953Z,3.90
2017-07-20T20:50:39.472Z,2.53
2017-07-20T20:53:06.956Z,2.70
2017-07-20T20:55:34.497Z,2.67
2017-07-20T20:58:01.980Z,2.63
2017-07-20T21:00:29.776Z,2.50
2017-07-20T21:02:57.288Z,3.33
2017-07-20T21:05:24.810Z,3.17
2017-07-20T21:07:52.336Z,2.73
2017-07-20T21:10:19.899Z,2.80
2017-07-20T21:12:47.420Z,2.70
2017-07-20T21:15:14.924Z,3.03
2017-07-20T21:17:42.450Z,2.80
2017-07-20T21:20:09.936Z,2.60
2017-07-20T21:22:37.469Z,2.50
2017-07-20T21:25:04.960Z,2.47
2017-07-20T21:27:32.526Z,2.60
2017-07-20T21:30:00.016Z,4.00
2017-07-20T21:32:27.537Z,2.47
2017-07-20T21:34:55.033Z,2.50
2017-07-20T21:37:22.526Z,3.37
2017-07-20T21:39:50.040Z,2.20
2017-07-20T21:42:17.525Z,2.80
2017-07-20T21:44:45.066Z,2.30
2017-07-20T21:47:12.561Z,2.30
2017-07-20T21:49:40.080Z,2.47
2017-07-20T21:52:07.566Z,2.20
2017-07-20T21:54:35.080Z,2.20
2017-07-20T21:57:02.576Z,2.80
2017-07-20T21:59:30.088Z,2.63
2017-07-20T22:01:57.596Z,2.53
2017-07-20T22:04:25.108Z,2.67
2017-07-20T22:06:52.589Z,2.10
2017-07-20T22:09:20.127Z,3.73
2017-07-20T22:11:47.610Z,2.67
2017-07-20T22:14:15.101Z,2.60
2017-07-20T22:16:42.625Z,2.70
2017-07-20T22:19:10.174Z,2.43
2017-07-20T22:21:37.694Z,2.30
2017-07-20T22:24:05.184Z,2.60
2017-07-20T22:26:32.701Z,2.10
2017-07-20T22:29:00.187Z,1.97
2017-07-20T22:31:27.696Z,2.33
2017-07-20T22:33:55.228Z,2.53
2017-07-20T22:36:22.737Z,3.40
2017-07-20T22:38:50.259Z,2.50
2017-07-20T22:41:17.772Z,2.50
2017-07-20T22:43:45.267Z,3.20
2017-07-20T22:46:12.769Z,1.97
2017-07-20T22:48:40.284Z,2.53
2017-07-20T22:51:07.768Z,2.60
2017-07-20T22:53:35.277Z,7.00
2017-07-20T22:56:02.776Z,2.40
2017-07-20T22:58:30.309Z,2.23
2017-07-20T23:00:57.948Z,3.80
2017-07-20T23:03:25.456Z,2.10
2017-07-20T23:05:52.939Z,2.43
2017-07-20T23:08:20.574Z,2.10
2017-07-20T23:10:48.057Z,2.67
2017-07-20T23:13:15.563Z,2.30
2017-07-20T23:15:43.047Z,2.17
2017-07-20T23:18:10.600Z,1.83
2017-07-20T23:20:38.090Z,2.07
2017-07-20T23:23:05.573Z,2.30
2017-07-20T23:25:33.088Z,2.60
2017-07-20T23:28:00.577Z,3.63
2017-07-20T23:30:28.141Z,2.27
2017-07-20T23:32:55.636Z,2.47
2017-07-20T23:35:23.149Z,2.70
2017-07-20T23:37:50.636Z,2.67
2017-07-20T23:40:18.153Z,3.27
2017-07-20T23:42:45.636Z,2.33
2017-07-20T23:45:13.149Z,2.50
2017-07-20T23:47:40.640Z,3.60
2017-07-20T23:50:08.620Z,2.30
2017-07-20T23:52:36.109Z,6.20
2017-07-20T23:55:03.672Z,3.30
2017-07-20T23:57:31.189Z,3.07
2017-07-20T23:59:58.676Z,2.30
